createdAt,value
2023-05-02T00:00:27.586Z,101492.72
2023-05-02T00:02:53.658Z,101506.50
2023-05-02T00:05:19.541Z,101505.44
2023-05-02T00:07:45.639Z,101516.47
2023-05-02T00:10:11.330Z,101513.72
2023-05-02T00:12:37.735Z,101518.38
2023-05-02T00:15:04.182Z,101526.66
2023-05-02T00:17:29.907Z,101520.31
2023-05-02T00:19:55.842Z,101519.25
2023-05-02T00:22:21.504Z,101516.47
2023-05-02T00:24:47.174Z,101518.38
2023-05-02T00:27:13.487Z,101523.91
2023-05-02T00:29:40.224Z,101524.75
2023-05-02T00:32:06.224Z,101531.09
2023-05-02T00:34:32.045Z,101528.59
2023-05-02T00:36:58.248Z,101531.34
2023-05-02T00:39:24.024Z,101539.38
2023-05-02T00:41:55.954Z,101535.78
2023-05-02T00:44:21.809Z,101542.41
2023-05-02T00:46:47.509Z,101544.09
2023-05-02T00:49:13.229Z,101545.16
2023-05-02T00:51:39.410Z,101555.94
2023-05-02T00:54:05.258Z,101550.44
2023-05-02T00:56:30.989Z,101544.09
2023-05-02T00:58:57.258Z,101548.75
2023-05-02T01:01:48.555Z,101541.31
2023-05-02T01:07:05.767Z,101543.22
2023-05-02T01:10:11.221Z,101546.84
2023-05-02T01:12:42.519Z,101542.41
2023-05-02T01:15:11.682Z,101556.19
2023-05-02T01:17:38.277Z,101553.44
2023-05-02T01:20:07.968Z,101557.88
2023-05-02T01:22:34.041Z,101567.00
2023-05-02T01:25:39.497Z,101567.00
2023-05-02T01:28:16.715Z,101567.00
2023-05-02T01:30:44.217Z,101570.81
2023-05-02T01:33:11.515Z,101568.06
2023-05-02T01:35:37.343Z,101571.69
2023-05-02T01:38:05.317Z,101580.78
2023-05-02T01:40:32.828Z,101583.56
2023-05-02T01:42:58.812Z,101577.22
2023-05-02T01:45:24.727Z,101586.31
2023-05-02T01:47:50.812Z,101586.31
2023-05-02T01:50:20.153Z,101589.06
2023-05-02T01:52:46.759Z,101591.00
2023-05-02T01:55:15.133Z,101588.25
2023-05-02T01:57:41.495Z,101591.00
2023-05-02T02:00:08.291Z,101591.25
2023-05-02T02:02:34.609Z,101600.13
2023-05-02T02:05:00.673Z,101610.34
2023-05-02T02:07:26.382Z,101606.47
2023-05-02T02:09:52.200Z,101601.19
2023-05-02T02:12:25.608Z,101595.66
2023-05-02T02:14:56.953Z,101596.53
2023-05-02T02:17:27.329Z,101599.28
2023-05-02T02:19:55.398Z,101608.41
2023-05-02T02:22:23.330Z,101602.88
2023-05-02T02:24:49.474Z,101605.66
2023-05-02T02:27:15.248Z,101612.22
2023-05-02T02:29:40.881Z,101613.09
2023-05-02T02:32:06.532Z,101612.00
2023-05-02T02:34:32.221Z,101616.69
2023-05-02T02:37:03.357Z,101611.16
2023-05-02T02:39:49.734Z,101610.34
2023-05-02T02:42:22.459Z,101616.69
2023-05-02T02:47:50.108Z,101620.50
2023-05-02T02:50:26.762Z,101628.78
2023-05-02T02:53:09.216Z,101629.66
2023-05-02T02:55:44.647Z,101633.25
2023-05-02T02:58:41.871Z,101633.25
2023-05-02T03:01:11.563Z,101636.00
2023-05-02T03:03:39.135Z,101631.56
2023-05-02T03:06:05.117Z,101637.94
2023-05-02T03:08:39.369Z,101635.19
2023-05-02T03:11:05.038Z,101641.53
2023-05-02T03:13:30.770Z,101646.22
2023-05-02T03:16:36.402Z,101650.63
2023-05-02T03:19:03.031Z,101656.16
2023-05-02T03:21:30.775Z,101654.50
2023-05-02T03:23:59.854Z,101657.25
2023-05-02T03:26:26.086Z,101655.34
2023-05-02T03:28:52.053Z,101648.97
2023-05-02T03:31:17.741Z,101655.34
2023-05-02T03:33:43.621Z,101655.34
2023-05-02T03:36:10.232Z,101660.03
2023-05-02T03:38:35.931Z,101660.03
2023-05-02T03:41:02.324Z,101660.84
2023-05-02T03:43:28.030Z,101663.34
2023-05-02T03:45:53.681Z,101661.94
2023-05-02T03:48:19.433Z,101661.69
2023-05-02T03:50:45.096Z,101668.31
2023-05-02T03:53:10.750Z,101669.13
2023-05-02T03:55:40.112Z,101669.97
2023-05-02T03:58:06.535Z,101674.66
2023-05-02T04:00:32.177Z,101675.72
2023-05-02T04:03:00.421Z,101682.09
2023-05-02T04:05:26.073Z,101683.78
2023-05-02T04:07:51.714Z,101679.06
2023-05-02T04:10:17.457Z,101669.97
2023-05-02T04:12:43.496Z,101678.25
2023-05-02T04:15:09.959Z,101682.94
2023-05-02T04:17:35.782Z,101680.19
2023-05-02T04:20:05.063Z,101682.94
2023-05-02T04:22:31.341Z,101696.75
2023-05-02T04:24:57.012Z,101702.25
2023-05-02T04:27:22.716Z,101698.69
2023-05-02T04:29:49.332Z,101702.25
2023-05-02T04:32:15.198Z,101710.53
2023-05-02T04:34:41.063Z,101716.06
2023-05-02T04:37:06.722Z,101714.38
2023-05-02T04:39:32.816Z,101720.75
2023-05-02T04:41:58.598Z,101722.66
2023-05-02T04:44:24.326Z,101721.00
2023-05-02T04:46:49.983Z,101729.28
2023-05-02T04:49:15.782Z,101730.13
2023-05-02T04:51:41.462Z,101738.41
2023-05-02T04:54:07.128Z,101750.25
2023-05-02T04:56:32.791Z,101751.13
2023-05-02T04:58:58.427Z,101748.59
2023-05-02T05:01:26.946Z,101751.38
2023-05-02T05:03:53.719Z,101765.16
2023-05-02T05:06:19.524Z,101763.25
2023-05-02T05:08:45.629Z,101769.59
2023-05-02T05:11:11.954Z,101766.84
2023-05-02T05:13:37.923Z,101762.16
2023-05-02T05:16:03.706Z,101764.94
2023-05-02T05:18:30.086Z,101757.72
2023-05-02T05:20:55.738Z,101776.81
2023-05-02T05:23:21.390Z,101769.59
2023-05-02T05:25:47.290Z,101775.13
2023-05-02T05:28:13.037Z,101774.28
2023-05-02T05:30:39.022Z,101778.16
2023-05-02T05:33:04.743Z,101785.31
2023-05-02T05:35:31.957Z,101787.84
2023-05-02T05:37:57.666Z,101786.16
2023-05-02T05:40:23.309Z,101792.78
2023-05-02T05:42:48.961Z,101797.19
2023-05-02T05:45:16.303Z,101797.19
2023-05-02T05:47:42.193Z,101807.41
2023-05-02T05:50:07.968Z,101802.72
2023-05-02T05:52:33.877Z,101814.63
2023-05-02T05:54:59.654Z,101811.88
2023-05-02T05:57:25.368Z,101823.72
2023-05-02T05:59:51.246Z,101827.56
2023-05-02T06:02:17.220Z,101832.84
2023-05-02T06:04:42.896Z,101835.59
2023-05-02T06:07:08.611Z,101840.53
2023-05-02T06:09:34.246Z,101839.19
2023-05-02T06:12:01.387Z,101849.16
2023-05-02T06:14:27.071Z,101854.34
2023-05-02T06:16:52.810Z,101851.06
2023-05-02T06:19:18.469Z,101858.25
2023-05-02T06:21:44.135Z,101862.94
2023-05-02T06:24:09.811Z,101858.25
2023-05-02T06:26:35.595Z,101868.47
2023-05-02T06:29:01.765Z,101874.81
2023-05-02T06:31:27.446Z,101875.66
2023-05-02T06:33:53.127Z,101875.66
2023-05-02T06:36:18.771Z,101884.25
2023-05-02T06:38:44.461Z,101886.19
2023-05-02T06:41:15.323Z,101892.81
2023-05-02T06:43:42.999Z,101901.94
2023-05-02T06:46:08.655Z,101900.84
2023-05-02T06:48:35.492Z,101902.75
2023-05-02T06:51:03.317Z,101905.53
2023-05-02T06:53:31.144Z,101904.41
2023-05-02T06:55:58.534Z,101906.13
2023-05-02T06:58:24.192Z,101910.53
2023-05-02T07:00:50.001Z,101922.16
2023-05-02T07:03:15.909Z,101913.94
2023-05-02T07:05:41.668Z,101917.78
2023-05-02T07:08:08.257Z,101925.50
2023-05-02T07:10:33.920Z,101927.66
2023-05-02T07:12:59.565Z,101931.25
2023-05-02T07:15:25.291Z,101931.91
2023-05-02T07:17:51.050Z,101935.50
2023-05-02T07:20:16.833Z,101940.19
2023-05-02T07:22:42.506Z,101941.84
2023-05-02T07:25:08.576Z,101940.59
2023-05-02T07:27:34.262Z,101938.16
2023-05-02T07:30:00.660Z,101940.41
2023-05-02T07:32:27.167Z,101949.53
2023-05-02T07:34:54.195Z,101949.53
2023-05-02T07:37:20.373Z,101955.59
2023-05-02T07:39:46.048Z,101963.06
2023-05-02T07:42:11.711Z,101956.44
2023-05-02T07:44:37.660Z,101971.94
2023-05-02T07:47:03.314Z,101964.72
2023-05-02T07:49:29.021Z,101980.03
2023-05-02T07:51:55.397Z,101976.44
2023-05-02T07:54:21.645Z,101990.56
2023-05-02T07:56:48.139Z,101988.63
2023-05-02T07:59:14.127Z,101990.56
2023-05-02T08:01:40.833Z,101999.69
2023-05-02T08:04:07.030Z,101992.50
2023-05-02T08:06:32.933Z,102005.47
2023-05-02T08:08:58.910Z,102002.72
2023-05-02T08:11:24.757Z,101999.97
2023-05-02T08:13:51.245Z,102000.78
2023-05-02T08:16:17.711Z,102001.03
2023-05-02T08:18:43.438Z,102014.59
2023-05-02T08:21:09.321Z,102022.63
2023-05-02T08:23:35.071Z,102030.63
2023-05-02T08:26:00.748Z,102031.47
2023-05-02T08:28:26.410Z,102034.81
2023-05-02T08:30:52.066Z,102034.22
2023-05-02T08:33:17.829Z,102040.53
2023-05-02T08:35:43.589Z,102040.63
2023-05-02T08:38:09.427Z,102049.22
2023-05-02T08:40:42.465Z,102051.72
2023-05-02T08:43:10.833Z,102050.34
2023-05-02T08:45:40.071Z,102054.31
2023-05-02T08:48:07.502Z,102059.34
2023-05-02T08:50:43.727Z,102055.75
2023-05-02T08:53:10.711Z,102062.94
2023-05-02T08:55:39.740Z,102062.72
2023-05-02T08:58:06.177Z,102058.25
2023-05-02T09:00:39.969Z,102074.59
2023-05-02T09:03:30.908Z,102064.38
2023-05-02T09:06:06.895Z,102061.63
2023-05-02T09:08:33.668Z,102077.34
2023-05-02T09:11:02.371Z,102081.78
2023-05-02T09:13:36.786Z,102078.19
2023-05-02T09:16:04.843Z,102086.72
2023-05-02T09:18:33.374Z,102082.63
2023-05-02T09:21:00.355Z,102085.38
2023-05-02T09:23:41.539Z,102085.38
2023-05-02T09:26:12.179Z,102090.06
2023-05-02T09:28:43.060Z,102100.03
2023-05-02T09:31:10.752Z,102111.06
2023-05-02T09:33:37.983Z,102109.41
2023-05-02T09:36:04.859Z,102110.25
2023-05-02T09:38:30.526Z,102118.78
2023-05-02T09:40:56.227Z,102112.09
2023-05-02T09:43:21.956Z,102114.53
2023-05-02T09:46:08.414Z,102124.56
2023-05-02T09:51:26.419Z,102131.78
2023-05-02T09:53:52.090Z,102139.19
2023-05-02T09:56:18.446Z,102137.03
2023-05-02T09:58:44.523Z,102141.38
2023-05-02T10:01:18.330Z,102141.22
2023-05-02T10:03:47.897Z,102137.94
2023-05-02T10:06:15.033Z,102148.00
2023-05-02T10:08:41.352Z,102146.66
2023-05-02T10:11:08.026Z,102145.31
2023-05-02T10:13:34.127Z,102144.22
2023-05-02T10:16:02.033Z,102145.31
2023-05-02T10:18:47.481Z,102149.75
2023-05-02T10:21:17.934Z,102144.22
2023-05-02T10:23:43.615Z,102151.41
2023-05-02T10:26:13.785Z,102146.16
2023-05-02T10:28:40.565Z,102143.38
2023-05-02T10:31:09.152Z,102140.63
2023-05-02T10:33:34.827Z,102140.63
2023-05-02T10:36:00.705Z,102141.47
2023-05-02T10:38:26.432Z,102134.00
2023-05-02T10:40:57.978Z,102138.97
2023-05-02T10:43:25.502Z,102144.97
2023-05-02T10:45:52.099Z,102152.69
2023-05-02T10:48:19.661Z,102152.94
2023-05-02T10:50:47.130Z,102154.38
2023-05-02T10:53:31.219Z,102156.53
2023-05-02T10:56:18.054Z,102157.13
2023-05-02T10:58:45.351Z,102154.09
2023-05-02T11:01:33.415Z,102154.94
2023-05-02T11:03:59.731Z,102166.81
2023-05-02T11:06:26.840Z,102158.53
2023-05-02T11:08:53.333Z,102158.53
2023-05-02T11:11:41.199Z,102157.69
2023-05-02T11:14:07.477Z,102163.22
2023-05-02T11:24:51.438Z,102156.09
2023-05-02T11:30:08.623Z,102158.97
2023-05-02T11:35:26.815Z,102146.09
2023-05-02T11:37:54.250Z,102156.75
2023-05-02T11:40:20.022Z,102161.94
2023-05-02T11:42:46.343Z,102158.75
2023-05-02T11:45:12.113Z,102148.59
2023-05-02T11:47:37.993Z,102162.13
2023-05-02T11:50:04.873Z,102157.09
2023-05-02T11:52:36.252Z,102154.19
2023-05-02T11:55:02.337Z,102174.34
2023-05-02T11:57:28.225Z,102173.63
2023-05-02T11:59:56.240Z,102173.78
2023-05-02T12:02:38.604Z,102185.72
2023-05-02T12:05:05.980Z,102186.91
2023-05-02T12:07:49.902Z,102182.25
2023-05-02T12:10:15.566Z,102190.28
2023-05-02T12:12:43.400Z,102192.78
2023-05-02T12:15:10.897Z,102191.69
2023-05-02T12:17:41.095Z,102187.84
2023-05-02T12:20:08.046Z,102195.88
2023-05-02T12:22:33.995Z,102200.56
2023-05-02T12:25:00.315Z,102198.63
2023-05-02T12:27:26.539Z,102204.16
2023-05-02T12:29:52.797Z,102204.16
2023-05-02T12:32:35.101Z,102209.44
2023-05-02T12:35:02.258Z,102205.59
2023-05-02T12:37:27.985Z,102218.81
2023-05-02T12:39:54.754Z,102214.38
2023-05-02T12:42:22.142Z,102219.47
2023-05-02T12:44:51.418Z,102223.75
2023-05-02T12:47:18.526Z,102223.22
2023-05-02T12:49:52.592Z,102231.28
2023-05-02T12:52:19.267Z,102230.19
2023-05-02T12:54:46.449Z,102228.53
2023-05-02T12:57:28.001Z,102228.28
2023-05-02T12:59:53.805Z,102236.28
2023-05-02T13:02:20.413Z,102227.19
2023-05-02T13:04:46.418Z,102229.94
2023-05-02T13:07:12.129Z,102235.22
2023-05-02T13:09:37.928Z,102235.22
2023-05-02T13:12:03.929Z,102232.47
2023-05-02T13:14:29.614Z,102238.81
2023-05-02T13:16:55.555Z,102234.13
2023-05-02T13:19:21.627Z,102233.31
2023-05-02T13:21:47.367Z,102238.56
2023-05-02T13:24:14.118Z,102229.44
2023-05-02T13:26:40.762Z,102224.75
2023-05-02T13:29:08.820Z,102230.88
2023-05-02T13:31:34.687Z,102221.16
2023-05-02T13:34:00.491Z,102230.03
2023-05-02T13:36:26.249Z,102231.94
2023-05-02T13:38:51.882Z,102230.88
2023-05-02T13:41:18.353Z,102232.53
2023-05-02T13:43:44.061Z,102236.97
2023-05-02T13:46:09.754Z,102240.84
2023-05-02T13:48:36.621Z,102240.56
2023-05-02T13:51:02.542Z,102239.16
2023-05-02T13:53:28.574Z,102237.25
2023-05-02T13:55:54.266Z,102239.16
2023-05-02T13:58:20.379Z,102248.28
2023-05-02T14:00:46.527Z,102236.41
2023-05-02T14:03:12.764Z,102240.22
2023-05-02T14:05:42.802Z,102247.69
2023-05-02T14:08:09.736Z,102245.75
2023-05-02T14:10:37.067Z,102241.94
2023-05-02T14:13:03.450Z,102250.22
2023-05-02T14:15:29.155Z,102250.22
2023-05-02T14:17:54.873Z,102238.34
2023-05-02T14:20:22.631Z,102244.69
2023-05-02T14:22:48.577Z,102240.00
2023-05-02T14:25:14.977Z,102241.94
2023-05-02T14:27:41.593Z,102236.41
2023-05-02T14:30:07.879Z,102232.81
2023-05-02T14:32:34.074Z,102236.41
2023-05-02T14:35:00.787Z,102231.94
2023-05-02T14:37:26.645Z,102240.50
2023-05-02T14:39:55.261Z,102230.03
2023-05-02T14:42:22.556Z,102241.09
2023-05-02T14:44:48.211Z,102243.00
2023-05-02T14:47:13.907Z,102242.78
2023-05-02T14:49:39.718Z,102231.97
2023-05-02T14:52:05.360Z,102233.44
2023-05-02T14:54:31.094Z,102229.38
2023-05-02T14:56:58.539Z,102236.81
2023-05-02T14:59:27.789Z,102239.25
2023-05-02T15:01:53.481Z,102236.47
2023-05-02T15:04:19.190Z,102234.53
2023-05-02T15:06:45.509Z,102229.03
2023-05-02T15:09:11.975Z,102241.75
2023-05-02T15:11:37.619Z,102234.06
2023-05-02T15:14:03.262Z,102224.09
2023-05-02T15:16:29.004Z,102228.53
2023-05-02T15:18:54.871Z,102230.19
2023-05-02T15:21:21.030Z,102223.00
2023-05-02T15:23:46.703Z,102226.00
2023-05-02T15:26:12.801Z,102237.03
2023-05-02T15:28:38.532Z,102230.47
2023-05-02T15:31:04.420Z,102238.75
2023-05-02T15:33:30.131Z,102227.69
2023-05-02T15:35:57.395Z,102227.69
2023-05-02T15:38:24.024Z,102227.69
2023-05-02T15:40:54.629Z,102230.19
2023-05-02T15:43:20.715Z,102230.19
2023-05-02T15:45:52.039Z,102236.81
2023-05-02T15:48:17.935Z,102232.69
2023-05-02T15:50:43.643Z,102231.88
2023-05-02T15:53:09.652Z,102226.34
2023-05-02T15:55:35.644Z,102243.75
2023-05-02T15:58:01.291Z,102242.91
2023-05-02T16:00:26.934Z,102242.09
2023-05-02T16:02:52.617Z,102239.91
2023-05-02T16:05:18.315Z,102235.47
2023-05-02T16:07:43.964Z,102233.31
2023-05-02T16:10:10.126Z,102246.28
2023-05-02T16:12:35.766Z,102248.22
2023-05-02T16:15:03.656Z,102242.69
2023-05-02T16:17:29.703Z,102237.16
2023-05-02T16:19:55.427Z,102241.59
2023-05-02T16:22:21.113Z,102239.06
2023-05-02T16:24:46.766Z,102248.22
2023-05-02T16:27:12.421Z,102247.34
2023-05-02T16:29:38.091Z,102250.97
2023-05-02T16:32:03.926Z,102243.53
2023-05-02T16:34:32.111Z,102238.81
2023-05-02T16:36:57.748Z,102245.44
2023-05-02T16:39:23.428Z,102246.50
2023-05-02T16:41:49.145Z,102252.03
2023-05-02T16:44:14.823Z,102241.81
2023-05-02T16:46:40.686Z,102245.44
2023-05-02T16:49:06.930Z,102247.34
2023-05-02T16:51:32.571Z,102251.19
2023-05-02T16:53:58.207Z,102259.25
2023-05-02T16:56:23.936Z,102250.09
2023-05-02T16:58:49.605Z,102245.44
2023-05-02T17:01:15.296Z,102245.44
2023-05-02T17:03:41.027Z,102242.09
2023-05-02T17:06:06.862Z,102239.31
2023-05-02T17:08:32.610Z,102241.81
2023-05-02T17:10:58.270Z,102249.28
2023-05-02T17:13:24.006Z,102252.88
2023-05-02T17:15:50.450Z,102252.03
2023-05-02T17:18:16.185Z,102250.09
2023-05-02T17:20:41.909Z,102258.41
2023-05-02T17:23:08.251Z,102257.56
2023-05-02T17:25:33.892Z,102263.34
2023-05-02T17:27:59.560Z,102260.31
2023-05-02T17:30:25.348Z,102264.19
2023-05-02T17:32:51.249Z,102265.03
2023-05-02T17:35:17.136Z,102269.44
2023-05-02T17:37:43.140Z,102265.03
2023-05-02T17:40:09.105Z,102264.19
2023-05-02T17:42:34.741Z,102267.78
2023-05-02T17:45:00.394Z,102273.31
2023-05-02T17:47:26.090Z,102267.56
2023-05-02T17:49:52.926Z,102271.38
2023-05-02T17:52:18.616Z,102268.63
2023-05-02T17:54:44.889Z,102273.31
2023-05-02T17:57:11.486Z,102276.06
2023-05-02T17:59:38.813Z,102276.06
2023-05-02T18:02:05.627Z,102275.22
2023-05-02T18:04:33.537Z,102269.72
2023-05-02T18:06:59.959Z,102275.22
2023-05-02T18:09:25.671Z,102275.22
2023-05-02T18:11:51.505Z,102275.22
2023-05-02T18:14:18.439Z,102275.22
2023-05-02T18:16:47.764Z,102283.53
2023-05-02T18:19:15.187Z,102279.94
2023-05-02T18:21:41.181Z,102279.94
2023-05-02T18:24:07.033Z,102291.81
2023-05-02T18:26:32.711Z,102285.44
2023-05-02T18:28:58.367Z,102285.44
2023-05-02T18:31:24.030Z,102294.56
2023-05-02T18:33:50.751Z,102293.75
2023-05-02T18:36:24.863Z,102290.97
2023-05-02T18:38:50.868Z,102296.50
2023-05-02T18:41:17.503Z,102294.84
2023-05-02T18:43:43.159Z,102302.03
2023-05-02T18:46:08.852Z,102296.50
2023-05-02T18:48:36.115Z,102294.56
2023-05-02T18:51:01.932Z,102294.00
2023-05-02T18:53:27.677Z,102299.25
2023-05-02T18:55:53.644Z,102295.66
2023-05-02T18:58:20.560Z,102299.25
2023-05-02T19:00:46.659Z,102299.25
2023-05-02T19:03:12.568Z,102300.34
2023-05-02T19:05:39.217Z,102311.41
2023-05-02T19:08:05.494Z,102309.47
2023-05-02T19:10:31.524Z,102314.16
2023-05-02T19:12:57.442Z,102317.75
2023-05-02T19:15:25.837Z,102320.53
2023-05-02T19:17:52.600Z,102327.97
2023-05-02T19:20:18.501Z,102335.19
2023-05-02T19:22:45.619Z,102335.44
2023-05-02T19:25:12.181Z,102331.84
2023-05-02T19:27:39.745Z,102331.59
2023-05-02T19:30:08.484Z,102327.16
2023-05-02T19:32:34.903Z,102333.75
2023-05-02T19:35:01.251Z,102339.03
2023-05-02T19:37:27.098Z,102340.97
2023-05-02T19:39:52.836Z,102349.25
2023-05-02T19:42:18.702Z,102358.38
2023-05-02T19:44:44.355Z,102358.38
2023-05-02T19:47:09.989Z,102357.53
2023-05-02T19:49:35.638Z,102358.38
2023-05-02T19:52:01.312Z,102349.25
2023-05-02T19:54:26.964Z,102354.78
2023-05-02T19:56:52.612Z,102357.53
2023-05-02T19:59:18.323Z,102365.00
2023-05-02T20:01:45.585Z,102366.66
2023-05-02T20:04:11.472Z,102375.19
2023-05-02T20:06:37.147Z,102371.34
2023-05-02T20:09:02.842Z,102363.28
2023-05-02T20:11:29.996Z,102370.53
2023-05-02T20:13:55.651Z,102368.59
2023-05-02T20:16:21.339Z,102371.34
2023-05-02T20:18:47.067Z,102366.88
2023-05-02T20:21:12.711Z,102377.94
2023-05-02T20:23:42.381Z,102378.81
2023-05-02T20:26:08.772Z,102372.41
2023-05-02T20:28:34.559Z,102378.81
2023-05-02T20:31:01.700Z,102376.03
2023-05-02T20:33:37.068Z,102378.81
2023-05-02T20:36:10.237Z,102393.69
2023-05-02T20:38:41.286Z,102392.63
2023-05-02T20:41:10.742Z,102394.50
2023-05-02T20:43:38.935Z,102388.16
2023-05-02T20:46:09.021Z,102392.63
2023-05-02T20:48:34.726Z,102398.38
2023-05-02T20:51:00.520Z,102390.09
2023-05-02T20:53:26.180Z,102391.75
2023-05-02T20:55:51.813Z,102399.19
2023-05-02T20:58:17.459Z,102395.59
2023-05-02T21:00:43.092Z,102392.84
2023-05-02T21:03:08.861Z,102401.97
2023-05-02T21:05:34.569Z,102400.03
2023-05-02T21:08:00.595Z,102404.72
2023-05-02T21:10:29.058Z,102402.81
2023-05-02T21:12:54.656Z,102401.13
2023-05-02T21:15:20.631Z,102406.06
2023-05-02T21:17:46.300Z,102405.00
2023-05-02T21:20:12.180Z,102405.81
2023-05-02T21:22:37.814Z,102411.34
2023-05-02T21:25:03.682Z,102409.41
2023-05-02T21:27:29.361Z,102409.41
2023-05-02T21:29:55.004Z,102407.75
2023-05-02T21:32:20.696Z,102417.72
2023-05-02T21:34:46.352Z,102415.19
2023-05-02T21:37:12.004Z,102418.81
2023-05-02T21:39:37.879Z,102427.91
2023-05-02T21:42:04.184Z,102429.84
2023-05-02T21:44:29.894Z,102429.84
2023-05-02T21:46:55.583Z,102422.41
2023-05-02T21:49:21.259Z,102424.31
2023-05-02T21:51:46.896Z,102425.16
2023-05-02T21:54:12.543Z,102424.31
2023-05-02T21:56:38.185Z,102435.38
2023-05-02T21:59:03.845Z,102430.69
2023-05-02T22:01:29.588Z,102424.31
2023-05-02T22:03:57.160Z,102431.78
2023-05-02T22:06:22.826Z,102431.78
2023-05-02T22:08:48.504Z,102436.22
2023-05-02T22:11:14.666Z,102436.22
2023-05-02T22:13:40.429Z,102435.38
2023-05-02T22:16:06.980Z,102439.81
2023-05-02T22:18:32.717Z,102443.66
2023-05-02T22:20:58.719Z,102444.50
2023-05-02T22:23:24.549Z,102438.13
2023-05-02T22:25:50.203Z,102449.19
2023-05-02T22:28:15.862Z,102445.59
2023-05-02T22:30:42.171Z,102439.22
2023-05-02T22:33:08.514Z,102442.81
2023-05-02T22:35:35.790Z,102453.88
2023-05-02T22:38:01.586Z,102444.75
2023-05-02T22:40:28.474Z,102447.50
2023-05-02T22:42:54.110Z,102448.34
2023-05-02T22:45:19.744Z,102455.81
2023-05-02T22:47:45.431Z,102451.13
2023-05-02T22:50:12.230Z,102443.06
2023-05-02T22:52:38.150Z,102451.13
2023-05-02T22:55:05.132Z,102453.03
2023-05-02T22:57:30.782Z,102452.22
2023-05-02T22:59:56.521Z,102442.00
2023-05-02T23:02:22.399Z,102454.97
2023-05-02T23:04:48.087Z,102444.75
2023-05-02T23:07:13.739Z,102447.50
2023-05-02T23:09:39.408Z,102443.06
2023-05-02T23:12:05.103Z,102444.75
2023-05-02T23:14:30.774Z,102451.13
2023-05-02T23:16:56.621Z,102442.00
2023-05-02T23:19:22.318Z,102440.06
2023-05-02T23:21:47.950Z,102439.44
2023-05-02T23:24:13.649Z,102436.47
2023-05-02T23:26:39.949Z,102426.47
2023-05-02T23:29:05.777Z,102429.25
2023-05-02T23:31:31.908Z,102423.72
2023-05-02T23:33:57.934Z,102419.06
2023-05-02T23:36:23.636Z,102416.28
2023-05-02T23:38:49.299Z,102419.88
2023-05-02T23:41:14.951Z,102422.66
2023-05-02T23:43:40.652Z,102419.06
2023-05-02T23:46:06.356Z,102420.13
2023-05-02T23:48:32.008Z,102420.94
2023-05-02T23:50:57.711Z,102421.81
2023-05-02T23:53:23.413Z,102428.19
2023-05-02T23:55:49.062Z,102427.34
2023-05-02T23:58:14.746Z,102420.94
